Time;durP1;ratioP1;P1;durP2;ratioP2;P2;SDS_P1;SDS_P2;PMS_P1;PMS_P2;Temp;Humidity;BMP_temperature;BMP_pressure;BME280_temperature;BME280_humidity;BME280_pressure;Samples;Min_cycle;Max_cycle;Signal;HPM_P1;HPM_P2
2022/05/26 04:22:37;;;;;;;4.30;1.40;;;;;;;14.86;67.38;100788.31;5088728;28;20147;-76
2022/05/26 04:25:03;;;;;;;2.00;1.40;;;;;;;14.91;66.67;100788.59;5089124;28;20089;-76
2022/05/26 04:27:31;;;;;;;3.55;1.48;;;;;;;14.95;66.97;100789.06;5091947;28;20139;-77
2022/05/26 04:29:57;;;;;;;1.98;1.50;;;;;;;14.97;66.53;100787.84;5091078;28;20047;-77
2022/05/26 04:32:23;;;;;;;4.20;1.70;;;;;;;14.98;67.27;100789.50;5087372;28;20044;-76
2022/05/26 04:34:51;;;;;;;3.83;1.15;;;;;;;15.03;66.61;100794.31;5089047;28;20443;-76
2022/05/26 04:37:18;;;;;;;2.65;1.38;;;;;;;15.10;66.89;100809.47;5088919;28;20406;-76
2022/05/26 04:39:44;;;;;;;6.20;1.20;;;;;;;15.10;67.68;100796.03;5087678;28;20028;-76
2022/05/26 04:42:10;;;;;;;2.97;1.10;;;;;;;15.10;67.73;100797.91;5088581;28;20429;-76
2022/05/26 04:44:38;;;;;;;2.78;1.77;;;;;;;15.13;66.84;100789.47;5088774;28;20036;-76
2022/05/26 04:47:05;;;;;;;3.92;1.50;;;;;;;15.18;66.01;100790.56;5088683;28;20497;-76
2022/05/26 04:49:31;;;;;;;2.03;1.23;;;;;;;15.22;66.19;100799.06;5088606;28;20047;-76
2022/05/26 04:51:57;;;;;;;4.45;1.35;;;;;;;15.25;66.69;100796.00;5088314;28;20040;-76
2022/05/26 04:54:23;;;;;;;4.40;1.48;;;;;;;15.25;67.11;100800.53;5089127;28;20058;-77
2022/05/26 04:56:49;;;;;;;3.35;1.40;;;;;;;15.26;67.52;100797.69;5088479;28;20489;-77
2022/05/26 04:59:15;;;;;;;2.75;1.50;;;;;;;15.26;67.83;100807.56;5090210;28;20043;-78
2022/05/26 05:01:42;;;;;;;2.95;1.52;;;;;;;15.26;67.55;100797.69;5089760;28;20095;-73
2022/05/26 05:04:08;;;;;;;2.10;0.95;;;;;;;15.29;68.13;100802.66;5090893;28;20029;-78
2022/05/26 05:06:33;;;;;;;3.30;2.05;;;;;;;15.32;67.55;100807.66;5089545;28;20040;-77
2022/05/26 05:08:59;;;;;;;5.45;1.60;;;;;;;15.35;67.37;100809.13;5090353;28;20123;-77
2022/05/26 05:11:24;;;;;;;5.05;2.00;;;;;;;15.40;66.82;100814.75;5090128;28;20055;-77
2022/05/26 05:13:50;;;;;;;2.78;1.35;;;;;;;15.41;68.16;100813.72;5088463;28;20044;-77
2022/05/26 05:16:29;;;;;;;4.50;1.83;;;;;;;15.41;67.57;100811.88;5089470;28;20059;-77
2022/05/26 05:18:56;;;;;;;3.72;1.60;;;;;;;15.43;67.64;100819.72;5088318;28;20028;-76
2022/05/26 05:21:29;;;;;;;5.47;1.83;;;;;;;15.48;67.96;100822.66;5088080;28;20045;-76
2022/05/26 05:24:01;;;;;;;2.67;1.40;;;;;;;15.46;67.66;100827.41;5086506;28;20036;-77
2022/05/26 05:26:34;;;;;;;4.35;1.63;;;;;;;15.46;67.93;100825.56;5087991;28;20040;-76
2022/05/26 05:29:05;;;;;;;4.40;1.75;;;;;;;15.49;68.03;100832.38;5087997;28;20066;-76
2022/05/26 05:31:56;;;;;;;3.10;1.48;;;;;;;15.52;67.94;100840.06;5087737;28;20064;-76
2022/05/26 05:34:27;;;;;;;4.05;1.60;;;;;;;15.53;68.09;100847.09;5074150;28;20036;-76
2022/05/26 05:36:53;;;;;;;5.15;2.03;;;;;;;15.57;68.23;100844.84;5074177;28;20036;-76
2022/05/26 05:39:19;;;;;;;3.60;1.70;;;;;;;15.61;68.03;100843.44;5039637;28;20051;-76
2022/05/26 05:41:44;;;;;;;3.03;1.45;;;;;;;15.64;67.47;100845.78;5074030;28;20132;-76
2022/05/26 05:44:10;;;;;;;2.83;1.98;;;;;;;15.64;68.35;100848.44;5072930;28;20040;-75
2022/05/26 05:46:53;;;;;;;3.20;1.20;;;;;;;15.68;68.62;100849.75;5074125;28;20024;-76
2022/05/26 05:49:23;;;;;;;4.55;1.85;;;;;;;15.70;67.94;100856.56;5074066;28;20401;-76
2022/05/26 05:51:49;;;;;;;3.30;1.30;;;;;;;15.75;67.78;100856.00;5073724;28;20032;-76
2022/05/26 05:54:15;;;;;;;2.60;1.20;;;;;;;15.84;68.98;100865.59;5074131;28;20182;-77
2022/05/26 05:56:40;;;;;;;2.65;1.55;;;;;;;15.86;67.66;100863.56;5074625;28;20501;-77
2022/05/26 05:59:06;;;;;;;2.80;1.90;;;;;;;15.97;67.65;100879.16;5074912;28;20122;-77
2022/05/26 06:01:32;;;;;;;5.00;1.83;;;;;;;16.06;65.67;100871.78;5074204;28;20034;-76
2022/05/26 06:03:57;;;;;;;2.72;1.40;;;;;;;16.02;66.17;100875.88;5073714;28;20520;-75
2022/05/26 06:06:23;;;;;;;5.93;1.60;;;;;;;16.16;65.75;100872.28;5073757;28;20393;-75
2022/05/26 06:08:48;;;;;;;4.07;1.55;;;;;;;16.15;65.79;100877.84;5072801;28;20059;-74
2022/05/26 06:11:14;;;;;;;8.65;1.83;;;;;;;16.24;64.38;100879.38;5073703;28;20040;-77
2022/05/26 06:13:39;;;;;;;2.90;1.73;;;;;;;16.29;65.10;100875.06;5073239;28;20043;-77
2022/05/26 06:16:05;;;;;;;2.63;1.50;;;;;;;16.41;63.84;100883.44;5072460;28;20039;-74
2022/05/26 06:18:34;;;;;;;3.15;1.75;;;;;;;16.51;65.31;100889.31;5073694;28;20043;-76
2022/05/26 06:21:04;;;;;;;4.03;1.35;;;;;;;16.57;63.92;100890.38;5073233;28;20136;-75
2022/05/26 06:23:30;;;;;;;5.82;1.52;;;;;;;16.64;63.64;100891.25;5072052;28;20107;-77
2022/05/26 06:25:56;;;;;;;3.90;1.90;;;;;;;16.73;63.65;100897.31;5073359;28;20032;-77
2022/05/26 06:31:08;;;;;;;2.58;1.27;;;;;;;16.77;63.94;100895.91;5073424;28;20036;-77
2022/05/26 06:39:03;;;;;;;3.90;1.85;;;;;;;16.93;63.24;100898.25;5073264;28;20043;-76
2022/05/26 06:44:13;;;;;;;5.95;1.23;;;;;;;16.93;63.93;100913.59;5072092;28;20032;-75
2022/05/26 06:46:40;;;;;;;6.18;2.05;;;;;;;16.94;64.46;100917.94;5072942;28;20531;-76
2022/05/26 06:49:06;;;;;;;3.30;1.48;;;;;;;17.04;64.23;100915.72;5072757;28;20041;-74
2022/05/26 06:51:36;;;;;;;5.07;1.65;;;;;;;17.15;64.14;100917.84;5072718;28;20048;-75
2022/05/26 06:54:03;;;;;;;4.43;1.50;;;;;;;17.13;65.03;100919.06;5065363;28;20044;-74
2022/05/26 06:56:29;;;;;;;2.70;1.50;;;;;;;17.21;64.98;100919.72;5069839;28;20063;-76
2022/05/26 06:58:55;;;;;;;3.20;1.40;;;;;;;17.23;65.10;100924.94;5070993;28;20485;-75
2022/05/26 07:01:20;;;;;;;2.55;1.50;;;;;;;17.33;64.01;100918.13;5070856;28;20039;-75
2022/05/26 07:03:46;;;;;;;3.63;1.10;;;;;;;17.36;64.26;100909.66;5071466;28;20057;-75
2022/05/26 07:06:17;;;;;;;2.17;1.30;;;;;;;17.43;62.21;100922.31;5072255;28;20361;-74
2022/05/26 07:08:44;;;;;;;4.57;1.95;;;;;;;17.43;62.54;100927.69;5072034;28;20409;-74
2022/05/26 07:11:10;;;;;;;2.38;1.48;;;;;;;17.48;63.30;100927.94;5071958;28;20056;-74
2022/05/26 07:13:35;;;;;;;3.38;1.60;;;;;;;17.48;62.95;100936.84;5070104;28;20481;-75
2022/05/26 07:16:01;;;;;;;3.13;1.40;;;;;;;17.33;62.41;100933.44;5072220;28;20044;-74
2022/05/26 07:18:27;;;;;;;5.30;2.92;;;;;;;17.24;63.92;100937.34;5070706;28;20419;-76
2022/05/26 07:20:52;;;;;;;5.28;1.70;;;;;;;17.24;62.32;100935.47;5071949;28;20032;-75
2022/05/26 07:23:18;;;;;;;3.17;1.42;;;;;;;17.20;62.25;100936.06;5064362;28;20112;-76
2022/05/26 07:25:44;;;;;;;2.40;1.30;;;;;;;17.25;62.70;100939.84;5052284;28;20095;-74
2022/05/26 07:28:13;;;;;;;5.10;1.77;;;;;;;17.30;62.60;100941.94;5051989;28;20116;-75
2022/05/26 07:30:39;;;;;;;3.30;1.73;;;;;;;17.32;60.96;100929.09;5051949;28;20037;-75
2022/05/26 07:33:05;;;;;;;5.97;1.92;;;;;;;17.33;62.26;100936.13;5050976;28;20033;-75
2022/05/26 07:35:31;;;;;;;4.35;2.15;;;;;;;17.27;63.25;100945.00;5051885;28;20531;-76
2022/05/26 07:43:27;;;;;;;2.90;1.55;;;;;;;17.23;62.74;100957.22;5050716;28;20044;-75
2022/05/26 07:45:53;;;;;;;2.42;1.60;;;;;;;17.26;61.76;100954.13;5051830;28;20036;-74
2022/05/26 07:48:18;;;;;;;3.95;1.48;;;;;;;17.35;62.81;100953.78;5051920;28;20482;-75
2022/05/26 07:50:44;;;;;;;3.15;1.52;;;;;;;17.37;62.47;100958.94;5051898;28;20028;-76
2022/05/26 07:53:10;;;;;;;8.82;5.15;;;;;;;17.38;62.50;100957.91;5050703;28;20040;-72
2022/05/26 07:55:36;;;;;;;3.55;2.00;;;;;;;17.38;61.74;100959.78;5050505;28;20402;-76
2022/05/26 07:58:01;;;;;;;3.97;1.80;;;;;;;17.45;61.68;100963.31;5051621;28;20095;-75
2022/05/26 08:00:27;;;;;;;4.05;1.55;;;;;;;17.39;61.83;100964.97;5051458;28;20037;-76
2022/05/26 08:02:52;;;;;;;3.88;1.48;;;;;;;17.45;62.30;100961.47;5050884;28;20047;-75
2022/05/26 08:05:18;;;;;;;2.90;1.50;;;;;;;17.39;62.31;100956.88;5051503;28;20124;-74
2022/05/26 08:07:43;;;;;;;3.33;1.42;;;;;;;17.54;62.51;100959.41;5051499;28;20033;-73
2022/05/26 08:10:10;;;;;;;2.70;1.40;;;;;;;17.47;61.30;100959.38;5051466;28;20053;-75
2022/05/26 08:12:36;;;;;;;3.55;1.50;;;;;;;17.50;61.39;100968.94;5049627;28;20482;-74
2022/05/26 08:15:02;;;;;;;5.13;1.33;;;;;;;17.54;61.77;100959.41;5050243;28;20133;-76
2022/05/26 08:17:28;;;;;;;1.73;1.30;;;;;;;17.42;62.16;100964.56;5050254;28;20041;-75
2022/05/26 08:19:53;;;;;;;3.53;1.63;;;;;;;17.41;63.36;100965.59;5051569;28;20110;-75
2022/05/26 08:22:19;;;;;;;2.97;1.75;;;;;;;17.49;63.19;100962.72;5051345;28;20135;-75
2022/05/26 08:24:51;;;;;;;3.38;1.70;;;;;;;17.63;61.10;100974.38;5052465;28;20068;-77
2022/05/26 08:27:17;;;;;;;5.35;1.60;;;;;;;17.70;61.50;100969.84;5062218;28;20033;-77
2022/05/26 08:29:43;;;;;;;4.25;1.50;;;;;;;17.84;61.60;100970.75;5073106;28;20386;-77
2022/05/26 08:32:08;;;;;;;2.72;1.15;;;;;;;17.95;60.85;100975.56;5072072;28;20048;-77
2022/05/26 08:34:34;;;;;;;1.77;1.40;;;;;;;18.07;61.39;100981.19;5071078;28;20075;-77
2022/05/26 08:36:59;;;;;;;5.60;1.80;;;;;;;18.13;60.00;100975.78;5073356;28;20116;-77
2022/05/26 08:39:25;;;;;;;2.13;1.58;;;;;;;18.20;60.21;100975.81;5075919;28;20440;-77
2022/05/26 08:41:53;;;;;;;1.75;1.17;;;;;;;18.20;59.49;100975.81;5073889;28;20127;-75
2022/05/26 08:44:36;;;;;;;3.95;1.50;;;;;;;18.30;59.17;100976.22;5073541;28;20036;-76
2022/05/26 08:47:12;;;;;;;3.00;1.45;;;;;;;18.32;61.29;100992.19;5071185;28;20033;-76
2022/05/26 08:50:08;;;;;;;3.97;1.67;;;;;;;18.49;62.82;100992.63;5071220;28;20032;-76
2022/05/26 08:52:56;;;;;;;5.07;1.85;;;;;;;18.62;60.56;100989.91;5068541;28;20060;-76
2022/05/26 08:55:29;;;;;;;2.00;1.40;;;;;;;18.55;61.29;100992.63;5050088;28;20469;-77
2022/05/26 08:58:01;;;;;;;2.38;1.23;;;;;;;18.50;60.65;100997.81;5051781;28;20070;-78
2022/05/26 09:00:27;;;;;;;2.92;1.63;;;;;;;18.44;59.75;101007.53;5052758;28;20032;-77
2022/05/26 09:02:58;;;;;;;4.65;1.75;;;;;;;18.39;60.81;101004.66;5049804;28;20051;-77
2022/05/26 09:05:23;;;;;;;3.90;1.20;;;;;;;18.50;60.07;100997.81;5051550;28;20041;-76
2022/05/26 09:13:39;;;;;;;3.03;1.50;;;;;;;18.21;60.74;101004.44;5054580;28;20041;-78
2022/05/26 09:16:06;;;;;;;5.00;1.60;;;;;;;18.20;60.76;101016.25;5058869;28;20036;-76
2022/05/26 09:18:32;;;;;;;5.75;1.73;;;;;;;18.14;60.49;101012.50;5067003;28;20045;-76
2022/05/26 09:21:17;;;;;;;4.03;1.42;;;;;;;18.14;60.41;101017.06;5053561;28;20525;-76
2022/05/26 09:23:46;;;;;;;3.30;1.70;;;;;;;18.18;59.56;101016.44;5053865;28;20629;-76
2022/05/26 09:26:17;;;;;;;4.60;1.90;;;;;;;18.22;61.24;101013.34;5054481;28;20098;-75
2022/05/26 09:28:45;;;;;;;6.53;1.55;;;;;;;18.31;62.37;101020.19;5054358;28;20043;-75
2022/05/26 09:31:21;;;;;;;6.47;1.75;;;;;;;18.25;61.02;101015.63;5054204;28;20509;-75
2022/05/26 09:34:14;;;;;;;2.88;1.85;;;;;;;18.43;61.49;101013.16;5054175;28;20039;-75
2022/05/26 09:36:50;;;;;;;3.30;1.60;;;;;;;18.44;62.65;101009.41;5054186;28;20483;-76
2022/05/26 09:39:22;;;;;;;2.90;1.65;;;;;;;18.52;61.89;101013.78;5054388;28;20064;-75
2022/05/26 09:41:52;;;;;;;7.25;1.98;;;;;;;18.51;59.62;101018.34;5053799;28;20041;-75
2022/05/26 09:44:53;;;;;;;4.45;1.90;;;;;;;18.41;59.17;101024.16;5052832;28;20489;-76
2022/05/26 09:47:30;;;;;;;3.67;2.00;;;;;;;18.27;58.92;101030.56;5054035;28;20025;-75
2022/05/26 09:50:02;;;;;;;3.17;1.50;;;;;;;18.28;60.69;101026.84;5054167;28;20605;-75
2022/05/26 09:52:38;;;;;;;3.85;1.70;;;;;;;18.21;60.24;101030.56;5053924;28;20223;-75
2022/05/26 09:55:18;;;;;;;3.55;1.63;;;;;;;18.19;60.19;101030.75;5053980;28;20525;-75
2022/05/26 09:57:44;;;;;;;2.55;1.45;;;;;;;18.21;61.20;101035.94;5054091;28;20039;-76
2022/05/26 10:00:34;;;;;;;6.80;1.92;;;;;;;18.24;62.35;101040.91;5054157;28;20462;-76
2022/05/26 10:03:06;;;;;;;6.35;1.55;;;;;;;18.11;62.57;101034.47;5053581;28;20448;-76
2022/05/26 10:05:54;;;;;;;3.78;1.38;;;;;;;18.18;61.22;101043.41;5053736;28;20516;-76
2022/05/26 10:08:35;;;;;;;6.47;1.45;;;;;;;18.11;62.14;101037.16;5052884;28;20048;-76
2022/05/26 10:11:15;;;;;;;3.33;1.50;;;;;;;18.12;62.54;101043.38;5053733;28;20090;-75
2022/05/26 10:13:52;;;;;;;5.05;1.58;;;;;;;18.15;62.09;101045.69;5053364;28;20083;-76
2022/05/26 10:16:39;;;;;;;3.00;1.52;;;;;;;18.20;62.63;101047.78;5053606;28;20033;-74
2022/05/26 10:19:18;;;;;;;3.15;1.50;;;;;;;18.09;62.46;101043.78;5052277;28;20405;-74
2022/05/26 10:22:08;;;;;;;3.25;1.48;;;;;;;17.97;61.55;101053.50;5053029;28;20584;-74
2022/05/26 10:25:01;;;;;;;3.70;1.75;;;;;;;17.94;61.59;101051.22;5052061;28;20059;-74
2022/05/26 10:28:18;;;;;;;4.55;1.95;;;;;;;17.89;62.31;101049.13;5053344;28;20151;-75
2022/05/26 10:30:47;;;;;;;3.50;1.73;;;;;;;17.88;62.48;101059.06;5024540;28;20045;-75
2022/05/26 10:33:38;;;;;;;2.17;1.60;;;;;;;17.93;62.00;101055.78;5052850;28;20057;-75
2022/05/26 10:36:13;;;;;;;1.90;1.42;;;;;;;17.93;62.33;101057.63;5053222;28;20036;-75
2022/05/26 10:39:01;;;;;;;7.10;2.30;;;;;;;18.01;62.19;101054.78;5051864;28;20033;-73
2022/05/26 10:41:40;;;;;;;3.15;1.63;;;;;;;18.03;63.07;101053.53;5051663;28;20029;-75
2022/05/26 10:44:20;;;;;;;5.75;2.10;;;;;;;18.10;62.82;101050.84;5053058;28;20037;-74
2022/05/26 10:46:56;;;;;;;6.30;1.70;;;;;;;18.20;61.26;101048.59;5052986;28;20041;-74
2022/05/26 10:49:30;;;;;;;5.18;1.75;;;;;;;18.36;61.33;101058.16;5052978;28;20112;-76
2022/05/26 10:52:01;;;;;;;3.88;1.90;;;;;;;18.47;61.72;101054.88;5052547;28;20032;-74
2022/05/26 10:54:40;;;;;;;4.82;1.70;;;;;;;18.74;61.84;101052.22;5052960;28;20061;-74
2022/05/26 10:57:15;;;;;;;3.80;1.60;;;;;;;18.78;60.49;101053.47;5052720;28;20072;-74
2022/05/26 10:59:45;;;;;;;5.80;1.70;;;;;;;19.07;60.08;101047.63;5052808;28;20051;-75
2022/05/26 11:02:29;;;;;;;7.70;1.77;;;;;;;19.38;58.66;101046.97;5052681;28;20087;-75
2022/05/26 11:05:02;;;;;;;3.15;1.58;;;;;;;19.34;59.32;101044.88;5051584;28;20047;-74
2022/05/26 11:07:30;;;;;;;3.92;1.50;;;;;;;19.39;57.38;101042.38;5052425;28;20453;-75
2022/05/26 11:10:02;;;;;;;7.30;2.25;;;;;;;19.77;57.51;101039.81;5052544;28;20492;-74
2022/05/26 11:12:37;;;;;;;3.60;1.60;;;;;;;20.53;58.28;101028.94;5050860;28;20470;-75
2022/05/26 11:18:15;;;;;;;9.38;1.48;;;;;;;21.62;53.50;101015.84;5052270;28;20119;-75
2022/05/26 11:20:53;;;;;;;3.05;1.67;;;;;;;21.23;51.58;101017.09;5052332;28;20035;-77
2022/05/26 11:23:21;;;;;;;3.83;1.35;;;;;;;21.58;50.82;101022.75;5050892;28;20569;-75
2022/05/26 11:26:04;;;;;;;4.68;1.23;;;;;;;22.15;53.42;101017.88;5052365;28;20478;-76
2022/05/26 11:28:47;;;;;;;3.03;1.40;;;;;;;22.26;51.40;101035.25;5052409;28;20551;-76
2022/05/26 11:37:23;;;;;;;5.05;2.10;;;;;;;20.99;52.02;101029.59;5051917;28;20112;-74
2022/05/26 11:39:58;;;;;;;5.55;2.90;;;;;;;20.92;53.42;101021.56;5052070;28;20474;-75
2022/05/26 11:42:31;;;;;;;3.58;1.65;;;;;;;20.75;53.39;101017.78;5051536;28;20036;-74
2022/05/26 11:45:22;;;;;;;2.63;1.20;;;;;;;20.51;53.41;101024.81;5052005;28;20405;-74
2022/05/26 11:47:52;;;;;;;2.17;1.45;;;;;;;20.47;54.54;101019.00;5051929;28;20037;-75
2022/05/26 11:50:27;;;;;;;10.50;2.17;;;;;;;20.55;54.84;101023.34;5051770;28;20044;-74
2022/05/26 11:52:52;;;;;;;6.30;3.60;;;;;;;20.29;55.97;101018.91;5051556;28;20087;-76
2022/05/26 11:55:27;;;;;;;3.40;2.25;;;;;;;20.08;56.00;101027.34;5051745;28;20056;-76
2022/05/26 11:57:54;;;;;;;3.17;1.60;;;;;;;19.78;55.91;101017.13;5052318;28;20029;-75
2022/05/26 12:00:35;;;;;;;3.17;1.40;;;;;;;19.76;55.22;101017.34;5050982;28;20044;-78
2022/05/26 12:03:47;;;;;;;4.35;1.63;;;;;;;20.07;56.39;101021.13;5051497;28;20406;-74
2022/05/26 12:06:15;;;;;;;1.60;1.20;;;;;;;20.00;55.85;101020.34;5050675;28;20083;-74
2022/05/26 12:08:52;;;;;;;2.53;1.33;;;;;;;20.51;55.49;101014.00;5051727;28;20037;-77
2022/05/26 12:11:20;;;;;;;2.97;1.38;;;;;;;20.82;54.16;101016.66;5051571;28;20057;-75
2022/05/26 12:14:01;;;;;;;2.58;1.20;;;;;;;20.89;52.55;101010.34;5051323;28;20021;-74
2022/05/26 12:16:28;;;;;;;3.03;1.33;;;;;;;20.68;52.06;101011.59;5051511;28;20029;-75
2022/05/26 12:19:00;;;;;;;3.50;1.33;;;;;;;20.74;51.77;101003.41;5051571;28;20640;-74
2022/05/26 12:21:28;;;;;;;4.95;1.45;;;;;;;20.44;52.09;101005.06;5051387;28;20383;-74
2022/05/26 12:23:58;;;;;;;1.92;1.20;;;;;;;20.68;52.64;101008.88;5051342;28;20024;-74
2022/05/26 12:26:46;;;;;;;3.80;1.60;;;;;;;20.95;51.50;101007.59;5051282;28;20025;-76
2022/05/26 12:29:57;;;;;;;3.17;1.45;;;;;;;20.98;52.92;101012.53;5051446;28;20033;-76
2022/05/26 12:32:32;;;;;;;1.92;1.20;;;;;;;20.96;51.68;101011.94;5051567;28;20057;-76
2022/05/26 12:35:25;;;;;;;2.28;1.35;;;;;;;20.86;51.05;101000.78;5052167;28;20079;-76
2022/05/26 12:38:00;;;;;;;1.30;1.13;;;;;;;21.05;51.08;100997.03;5051700;28;20037;-75
2022/05/26 12:40:25;;;;;;;3.50;1.25;;;;;;;20.91;49.88;101005.53;5051668;28;20087;-76
2022/05/26 12:43:21;;;;;;;2.08;1.20;;;;;;;20.98;52.02;101001.69;5052567;28;20041;-76
2022/05/26 12:46:31;;;;;;;1.35;1.17;;;;;;;21.18;51.57;100996.06;5054609;28;20487;-75
2022/05/26 12:49:18;;;;;;;2.92;1.40;;;;;;;21.65;51.07;100991.00;5054674;28;20228;-76
2022/05/26 12:51:44;;;;;;;3.08;1.15;;;;;;;21.97;49.36;100988.03;5055203;28;20025;-76
2022/05/26 12:54:19;;;;;;;5.95;1.33;;;;;;;22.30;50.84;100993.84;5053810;28;20383;-75
2022/05/26 12:56:52;;;;;;;2.30;1.40;;;;;;;22.09;48.90;100988.94;5055497;28;20078;-77
2022/05/26 12:59:23;;;;;;;3.67;1.15;;;;;;;21.87;48.69;100991.31;5057734;28;20044;-77
2022/05/26 13:01:49;;;;;;;4.90;1.50;;;;;;;21.59;50.04;100991.91;5055376;28;20039;-76
2022/05/26 13:04:24;;;;;;;3.00;1.75;;;;;;;21.58;49.10;100980.25;5055284;28;20108;-76
2022/05/26 13:06:54;;;;;;;1.85;1.33;;;;;;;21.40;48.29;100982.97;5055402;28;20037;-77
2022/05/26 13:09:25;;;;;;;3.10;1.00;;;;;;;20.96;48.80;100982.16;5055102;28;20479;-76
2022/05/26 13:11:53;;;;;;;4.68;1.65;;;;;;;20.88;50.10;100993.28;5055172;28;20029;-77
2022/05/26 13:14:37;;;;;;;2.63;1.55;;;;;;;20.56;49.93;100992.53;5053818;28;20037;-76
2022/05/26 13:17:18;;;;;;;4.45;1.77;;;;;;;20.44;50.92;100983.44;5053982;28;20035;-76
2022/05/26 13:19:52;;;;;;;4.05;2.22;;;;;;;20.38;51.34;100978.91;5055392;28;20371;-77
2022/05/26 13:22:38;;;;;;;2.75;1.50;;;;;;;20.67;51.76;100985.53;5054756;28;20029;-77
2022/05/26 13:25:07;;;;;;;2.33;1.55;;;;;;;20.72;51.36;100983.84;5054916;28;20086;-76
2022/05/26 13:27:59;;;;;;;1.58;1.20;;;;;;;20.90;51.47;100976.81;5054572;28;20124;-76
2022/05/26 13:33:19;;;;;;;5.00;1.55;;;;;;;21.54;50.10;100975.50;5054740;28;20041;-76
2022/05/26 13:35:49;;;;;;;5.15;1.23;;;;;;;21.61;47.45;100970.81;5054685;28;20109;-76
2022/05/26 13:38:43;;;;;;;2.70;1.15;;;;;;;21.44;48.76;100975.19;5055015;28;20037;-77
2022/05/26 13:41:12;;;;;;;2.30;1.20;;;;;;;21.28;49.15;100968.47;5050071;28;20056;-77
2022/05/26 13:43:42;;;;;;;2.88;1.38;;;;;;;21.31;48.32;100970.75;5054159;28;20405;-76
2022/05/26 13:46:09;;;;;;;4.43;1.75;;;;;;;21.62;48.78;100964.31;5054639;28;20436;-76
2022/05/26 13:48:35;;;;;;;4.68;1.17;;;;;;;21.72;45.09;100964.63;5054221;28;20029;-75
2022/05/26 13:51:23;;;;;;;2.95;1.30;;;;;;;21.93;47.44;100955.97;5054650;28;20060;-77
2022/05/26 13:54:25;;;;;;;2.05;1.20;;;;;;;22.03;45.32;100949.16;5054145;28;20454;-76
2022/05/26 13:56:51;;;;;;;2.08;1.05;;;;;;;22.05;46.99;100955.19;5054154;28;20043;-77
2022/05/26 13:59:17;;;;;;;1.98;1.20;;;;;;;22.23;46.96;100949.69;5054227;28;20041;-76
2022/05/26 14:02:06;;;;;;;2.42;1.17;;;;;;;22.07;45.64;100951.16;5056213;28;20044;-76
2022/05/26 14:04:37;;;;;;;2.85;1.20;;;;;;;21.95;45.08;100950.31;5055045;28;20029;-76
2022/05/26 14:07:52;;;;;;;2.47;1.45;;;;;;;21.84;46.60;100943.81;5054036;28;20033;-76
2022/05/26 14:10:20;;;;;;;1.60;1.30;;;;;;;21.85;46.98;100942.75;5057389;28;20103;-77
2022/05/26 14:13:06;;;;;;;2.38;1.10;;;;;;;21.80;46.40;100934.47;5053784;28;20541;-77
2022/05/26 14:15:38;;;;;;;2.58;1.10;;;;;;;21.56;49.04;100938.13;5052601;28;20484;-76
2022/05/26 14:18:04;;;;;;;8.88;1.30;;;;;;;21.49;47.63;100931.97;5052607;28;20075;-76
2022/05/26 14:20:29;;;;;;;2.88;1.38;;;;;;;21.54;46.91;100932.94;5053876;28;20072;-77
2022/05/26 14:22:56;;;;;;;5.05;1.50;;;;;;;21.38;47.88;100926.25;5052313;28;20033;-77
2022/05/26 14:25:25;;;;;;;4.30;1.58;;;;;;;21.32;46.95;100932.63;5052275;28;20037;-77
2022/05/26 14:28:04;;;;;;;2.45;1.00;;;;;;;21.59;48.71;100918.72;5053355;28;20091;-77
2022/05/26 14:30:41;;;;;;;2.90;1.58;;;;;;;21.75;49.28;100925.38;5053496;28;20056;-77
2022/05/26 14:33:21;;;;;;;2.78;1.30;;;;;;;21.73;47.66;100922.06;5053421;28;20043;-76
2022/05/26 14:35:48;;;;;;;3.40;1.00;;;;;;;21.78;45.67;100919.47;5053353;28;20079;-76
2022/05/26 14:38:14;;;;;;;2.63;0.90;;;;;;;21.70;46.62;100917.09;5053368;28;20031;-75
2022/05/26 14:40:40;;;;;;;3.60;1.20;;;;;;;21.46;47.19;100913.47;5052916;28;20041;-75
2022/05/26 14:43:07;;;;;;;2.53;1.17;;;;;;;21.57;46.20;100913.50;5052768;28;20035;-74
2022/05/26 14:45:33;;;;;;;3.03;1.40;;;;;;;21.35;47.01;100915.06;5052868;28;20029;-75
2022/05/26 14:48:01;;;;;;;7.90;3.30;;;;;;;21.40;47.29;100923.34;5052941;28;20107;-75
2022/05/26 14:50:26;;;;;;;4.07;1.42;;;;;;;21.58;47.19;100907.06;5053215;28;20043;-74
2022/05/26 14:52:52;;;;;;;2.25;1.30;;;;;;;21.74;46.31;100913.69;5052850;28;20037;-75
2022/05/26 14:55:30;;;;;;;2.05;1.10;;;;;;;21.84;46.04;100913.97;5052747;28;20410;-75
2022/05/26 14:58:02;;;;;;;4.28;1.35;;;;;;;21.95;46.17;100915.88;5052888;28;20410;-75
2022/05/26 15:00:33;;;;;;;2.38;1.45;;;;;;;21.96;46.15;100900.41;5052768;28;20033;-74
2022/05/26 15:02:59;;;;;;;2.97;1.33;;;;;;;21.93;44.12;100911.75;5052346;28;20101;-76
2022/05/26 15:05:28;;;;;;;1.40;1.10;;;;;;;21.75;45.58;100907.22;5051623;28;20024;-75
2022/05/26 15:07:53;;;;;;;3.25;1.15;;;;;;;21.87;44.24;100899.13;5052673;28;20037;-74
2022/05/26 15:10:19;;;;;;;1.98;1.17;;;;;;;21.94;45.20;100889.81;5052318;28;20052;-74
2022/05/26 15:12:45;;;;;;;2.40;1.15;;;;;;;21.80;46.13;100891.09;5052055;28;20090;-75
2022/05/26 15:15:13;;;;;;;3.95;1.33;;;;;;;21.83;45.08;100893.31;5052212;28;20406;-75
2022/05/26 15:17:39;;;;;;;1.52;1.30;;;;;;;21.80;44.08;100899.22;5052286;28;20041;-76
2022/05/26 15:20:08;;;;;;;3.17;1.20;;;;;;;21.93;44.89;100885.44;5052158;28;20505;-76
2022/05/26 15:22:34;;;;;;;2.58;1.25;;;;;;;21.97;44.77;100896.66;5051806;28;20652;-76
2022/05/26 15:25:03;;;;;;;1.83;1.30;;;;;;;21.79;44.78;100903.00;5050930;28;20033;-76
2022/05/26 15:27:31;;;;;;;2.97;1.50;;;;;;;21.62;44.57;100888.44;5050927;28;20549;-74
2022/05/26 15:29:57;;;;;;;2.63;1.33;;;;;;;21.66;44.38;100884.22;5052245;28;20069;-77
2022/05/26 15:32:34;;;;;;;1.83;1.10;;;;;;;21.75;45.38;100887.41;5051778;28;20033;-76
2022/05/26 15:35:01;;;;;;;2.78;1.27;;;;;;;21.81;45.75;100876.47;5052245;28;20041;-77
2022/05/26 15:37:27;;;;;;;2.37;1.30;;;;;;;21.86;46.47;100878.50;5052057;28;20060;-75
2022/05/26 15:39:54;;;;;;;2.13;1.33;;;;;;;21.91;44.93;100876.72;5052032;28;20064;-75
2022/05/26 15:42:20;;;;;;;1.83;1.23;;;;;;;21.97;45.55;100874.13;5050504;28;20044;-75
2022/05/26 15:44:46;;;;;;;2.13;1.27;;;;;;;21.83;44.83;100868.09;5051982;28;20352;-75
2022/05/26 15:47:13;;;;;;;2.90;1.45;;;;;;;21.47;44.56;100872.59;5051689;28;20037;-75
2022/05/26 15:49:45;;;;;;;2.20;1.35;;;;;;;21.45;44.88;100876.56;5052121;28;20041;-74
2022/05/26 15:52:11;;;;;;;3.50;1.50;;;;;;;21.50;44.75;100868.59;5051441;28;20041;-75
2022/05/26 15:54:38;;;;;;;2.45;1.35;;;;;;;21.47;44.40;100875.31;5052005;28;20032;-77
2022/05/26 15:57:05;;;;;;;2.70;1.13;;;;;;;21.57;44.52;100859.28;5052148;28;20045;-77
2022/05/26 15:59:31;;;;;;;2.95;1.20;;;;;;;21.62;43.15;100870.28;5051679;28;20037;-75
2022/05/26 16:01:56;;;;;;;2.60;1.05;;;;;;;21.59;43.92;100857.19;5051348;28;20037;-74
2022/05/26 16:04:22;;;;;;;2.33;1.42;;;;;;;21.63;43.73;100858.38;5051817;28;20044;-76
2022/05/26 16:06:49;;;;;;;4.10;1.52;;;;;;;21.71;43.38;100857.22;5051542;28;20036;-77
2022/05/26 16:09:15;;;;;;;2.88;1.30;;;;;;;21.63;44.22;100858.38;5051711;28;20063;-75
2022/05/26 16:11:45;;;;;;;2.42;1.30;;;;;;;21.39;43.28;100864.78;5051616;28;20493;-74
2022/05/26 16:14:16;;;;;;;1.98;1.15;;;;;;;21.26;44.13;100868.47;5051457;28;20123;-76
2022/05/26 16:16:42;;;;;;;4.07;1.45;;;;;;;21.02;44.57;100862.09;5051361;28;20028;-75
2022/05/26 16:19:07;;;;;;;3.00;1.35;;;;;;;20.99;44.96;100862.53;5051531;28;20082;-75
2022/05/26 16:21:34;;;;;;;3.78;1.52;;;;;;;20.96;44.51;100857.59;5051010;28;20045;-75
2022/05/26 16:24:00;;;;;;;4.10;1.52;;;;;;;20.89;44.70;100861.44;5051407;28;20431;-74
2022/05/26 16:26:27;;;;;;;3.72;1.23;;;;;;;20.76;45.51;100862.41;5051350;28;20047;-74
2022/05/26 16:28:54;;;;;;;2.25;1.42;;;;;;;20.79;45.20;100851.94;5051348;28;20068;-74
2022/05/26 16:31:21;;;;;;;3.77;1.50;;;;;;;20.88;45.01;100849.78;5050368;28;20033;-74
2022/05/26 16:33:46;;;;;;;3.10;1.70;;;;;;;20.85;45.43;100853.75;5051215;28;20047;-74
2022/05/26 16:38:57;;;;;;;3.13;1.58;;;;;;;20.70;45.32;100847.06;5051536;28;20045;-77
2022/05/26 16:41:24;;;;;;;3.53;1.50;;;;;;;20.64;45.73;100854.19;5051336;28;20043;-75
2022/05/26 16:43:49;;;;;;;5.13;1.30;;;;;;;20.59;45.63;100846.75;5051104;28;20506;-76